createdAt,value
2023-11-18T00:01:58.762Z,97830.50
2023-11-18T00:04:44.855Z,97828.72
2023-11-18T00:07:30.793Z,97835.09
2023-11-18T00:10:16.448Z,97837.88
2023-11-18T00:13:03.499Z,97847.34
2023-11-18T00:15:49.475Z,97848.69
2023-11-18T00:18:35.541Z,97851.91
2023-11-18T00:21:20.901Z,97858.00
2023-11-18T00:24:07.016Z,97868.28
2023-11-18T00:26:52.557Z,97873.34
2023-11-18T00:29:38.897Z,97871.41
2023-11-18T00:32:24.936Z,97879.91
2023-11-18T00:35:11.579Z,97884.97
2023-11-18T00:37:57.643Z,97876.31
2023-11-18T00:40:43.291Z,97881.56
2023-11-18T00:43:28.835Z,97884.31
2023-11-18T00:46:14.311Z,97879.25
2023-11-18T00:48:59.730Z,97884.66
2023-11-18T00:51:45.084Z,97880.41
2023-11-18T00:54:31.538Z,97887.59
2023-11-18T00:57:18.213Z,97888.56
2023-11-18T01:00:04.014Z,97878.94
2023-11-18T01:02:51.089Z,97884.97
2023-11-18T01:05:36.893Z,97876.31
2023-11-18T01:08:22.393Z,97880.25
2023-11-18T01:11:08.204Z,97875.50
2023-11-18T01:13:57.129Z,97864.56
2023-11-18T01:16:42.887Z,97871.91
2023-11-18T01:19:29.552Z,97874.22
2023-11-18T01:22:15.287Z,97871.25
2023-11-18T01:25:02.155Z,97870.91
2023-11-18T01:27:48.159Z,97873.38
2023-11-18T01:30:33.934Z,97870.75
2023-11-18T01:33:19.727Z,97866.00
2023-11-18T01:36:06.025Z,97867.31
2023-11-18T01:38:52.229Z,97869.59
2023-11-18T01:41:37.801Z,97870.25
2023-11-18T01:44:25.342Z,97873.34
2023-11-18T01:47:15.108Z,97879.03
2023-11-18T01:50:01.497Z,97882.28
2023-11-18T01:52:48.802Z,97889.81
2023-11-18T01:55:35.600Z,97886.03
2023-11-18T01:58:24.215Z,97886.50
2023-11-18T02:01:11.038Z,97892.22
2023-11-18T02:03:56.922Z,97887.47
2023-11-18T02:06:43.737Z,97887.75
2023-11-18T02:09:30.248Z,97884.81
2023-11-18T02:12:32.058Z,97895.72
2023-11-18T02:15:19.115Z,97888.34
2023-11-18T02:18:12.544Z,97896.50
2023-11-18T02:20:59.257Z,97888.84
2023-11-18T02:23:45.408Z,97894.19
2023-11-18T02:26:31.323Z,97894.19
2023-11-18T02:29:17.175Z,97895.34
2023-11-18T02:32:28.569Z,97896.81
2023-11-18T02:35:29.101Z,97899.28
2023-11-18T02:38:15.961Z,97901.56
2023-11-18T02:41:10.049Z,97900.59
2023-11-18T02:43:56.477Z,97898.78
2023-11-18T02:46:44.863Z,97893.56
2023-11-18T02:49:31.148Z,97898.00
2023-11-18T02:52:16.836Z,97897.19
2023-11-18T02:55:02.357Z,97903.22
2023-11-18T02:57:48.066Z,97900.44
2023-11-18T03:00:33.936Z,97904.53
2023-11-18T03:03:21.519Z,97908.66
2023-11-18T03:06:07.316Z,97908.31
2023-11-18T03:08:53.975Z,97911.44
2023-11-18T03:11:39.664Z,97912.13
2023-11-18T03:14:25.109Z,97907.41
2023-11-18T03:17:11.042Z,97914.91
2023-11-18T03:19:56.775Z,97916.53
2023-11-18T03:22:42.430Z,97909.38
2023-11-18T03:25:28.000Z,97910.34
2023-11-18T03:28:13.437Z,97912.13
2023-11-18T03:30:59.001Z,97913.63
2023-11-18T03:33:44.362Z,97918.69
2023-11-18T03:36:29.890Z,97920.16
2023-11-18T03:39:15.408Z,97917.38
2023-11-18T03:42:01.192Z,97925.75
2023-11-18T03:44:49.512Z,97927.56
2023-11-18T03:47:35.383Z,97930.00
2023-11-18T03:50:21.177Z,97936.53
2023-11-18T03:53:07.521Z,97939.81
2023-11-18T03:55:53.143Z,97944.75
2023-11-18T03:58:38.861Z,97937.38
2023-11-18T04:01:28.074Z,97939.69
2023-11-18T04:04:13.330Z,97934.97
2023-11-18T04:06:58.767Z,97940.19
2023-11-18T04:09:45.074Z,97930.53
2023-11-18T04:12:31.696Z,97933.31
2023-11-18T04:15:17.245Z,97938.06
2023-11-18T04:18:02.922Z,97940.84
2023-11-18T04:20:51.579Z,97941.97
2023-11-18T04:23:43.032Z,97940.63
2023-11-18T04:26:28.627Z,97945.22
2023-11-18T04:29:14.156Z,97941.13
2023-11-18T04:32:01.183Z,97953.38
2023-11-18T04:34:46.976Z,97950.91
2023-11-18T04:37:32.758Z,97950.09
2023-11-18T04:40:18.584Z,97956.16
2023-11-18T04:43:04.184Z,97952.84
2023-11-18T04:45:49.617Z,97961.66
2023-11-18T04:48:39.704Z,97959.06
2023-11-18T04:51:27.216Z,97962.69
2023-11-18T04:54:12.587Z,97960.88
2023-11-18T04:56:59.143Z,97966.91
2023-11-18T04:59:47.784Z,97966.91
2023-11-18T05:02:34.869Z,97975.41
2023-11-18T05:05:20.234Z,97964.97
2023-11-18T05:08:07.936Z,97969.38
2023-11-18T05:10:53.470Z,97969.38
2023-11-18T05:13:41.271Z,97971.31
2023-11-18T05:16:26.560Z,97973.44
2023-11-18T05:19:12.125Z,97975.53
2023-11-18T05:21:57.639Z,97978.78
2023-11-18T05:24:45.270Z,97976.78
2023-11-18T05:27:32.438Z,97982.63
2023-11-18T05:30:19.176Z,97986.53
2023-11-18T05:33:06.859Z,97987.63
2023-11-18T05:35:52.686Z,97987.16
2023-11-18T05:38:38.584Z,97981.25
2023-11-18T05:41:31.492Z,97988.41
2023-11-18T05:44:20.935Z,97985.28
2023-11-18T05:47:12.761Z,97993.59
2023-11-18T05:49:58.428Z,97991.47
2023-11-18T05:52:43.879Z,97991.06
2023-11-18T05:55:29.794Z,97987.94
2023-11-18T05:58:15.268Z,97985.50
2023-11-18T06:01:01.120Z,97986.16
2023-11-18T06:03:47.130Z,97988.78
2023-11-18T06:06:33.262Z,97994.97
2023-11-18T06:09:26.673Z,97993.16
2023-11-18T06:12:12.320Z,97993.16
2023-11-18T06:14:58.639Z,97998.53
2023-11-18T06:17:45.849Z,97995.94
2023-11-18T06:20:31.528Z,97994.16
2023-11-18T06:23:19.734Z,97998.38
2023-11-18T06:26:05.621Z,97992.19
2023-11-18T06:28:51.529Z,97993.84
2023-11-18T06:31:36.918Z,97993.69
2023-11-18T06:34:22.274Z,97995.31
2023-11-18T06:37:08.434Z,97991.75
2023-11-18T06:39:54.116Z,97990.94
2023-11-18T06:42:40.507Z,97995.31
2023-11-18T06:45:25.895Z,97989.13
2023-11-18T06:48:12.131Z,98010.03
2023-11-18T06:50:57.829Z,98010.03
2023-11-18T06:53:45.487Z,98016.22
2023-11-18T06:56:31.509Z,98012.97
2023-11-18T06:59:17.574Z,98017.50
2023-11-18T07:02:05.477Z,98015.78
2023-11-18T07:04:51.771Z,98013.50
2023-11-18T07:07:38.768Z,98005.94
2023-11-18T07:10:24.580Z,98013.13
2023-11-18T07:13:11.959Z,98017.69
2023-11-18T07:15:58.653Z,98010.97
2023-11-18T07:18:44.624Z,98015.66
2023-11-18T07:21:30.620Z,98013.50
2023-11-18T07:24:18.295Z,98026.56
2023-11-18T07:27:04.361Z,98044.03
2023-11-18T07:29:50.053Z,98043.72
2023-11-18T07:32:35.521Z,98041.94
2023-11-18T07:35:21.010Z,98047.69
2023-11-18T07:38:08.403Z,98056.00
2023-11-18T07:40:57.805Z,98060.13
2023-11-18T07:43:45.620Z,98050.06
2023-11-18T07:46:32.830Z,98052.88
2023-11-18T07:49:18.752Z,98061.47
2023-11-18T07:52:04.568Z,98058.78
2023-11-18T07:54:53.014Z,98059.81
2023-11-18T07:57:38.982Z,98061.81
2023-11-18T08:00:25.137Z,98070.69
2023-11-18T08:03:15.244Z,98072.38
2023-11-18T08:06:00.924Z,98073.09
2023-11-18T08:08:46.927Z,98085.22
2023-11-18T08:11:32.373Z,98080.72
2023-11-18T08:14:18.404Z,98083.06
2023-11-18T08:17:05.704Z,98090.81
2023-11-18T08:19:51.250Z,98088.59
2023-11-18T08:22:36.905Z,98100.41
2023-11-18T08:25:23.084Z,98100.94
2023-11-18T08:28:09.548Z,98102.44
2023-11-18T08:30:55.823Z,98103.16
2023-11-18T08:33:41.112Z,98098.91
2023-11-18T08:36:28.640Z,98101.69
2023-11-18T08:39:17.678Z,98104.50
2023-11-18T08:42:03.644Z,98103.88
2023-11-18T08:44:49.354Z,98109.09
2023-11-18T08:47:35.118Z,98119.59
2023-11-18T08:50:24.930Z,98115.03
2023-11-18T08:53:11.654Z,98119.78
2023-11-18T08:55:57.657Z,98112.56
2023-11-18T08:58:46.508Z,98110.63
2023-11-18T09:01:32.893Z,98119.13
2023-11-18T09:04:21.249Z,98109.28
2023-11-18T09:07:08.184Z,98116.81
2023-11-18T09:09:54.086Z,98115.81
2023-11-18T09:12:42.547Z,98105.94
2023-11-18T09:15:29.813Z,98095.44
2023-11-18T09:18:15.486Z,98094.41
2023-11-18T09:21:02.591Z,98082.91
2023-11-18T09:23:51.292Z,98088.75
2023-11-18T09:26:36.964Z,98082.47
2023-11-18T09:29:25.296Z,98079.81
2023-11-18T09:32:14.090Z,98072.06
2023-11-18T09:35:00.087Z,98080.09
2023-11-18T09:37:46.030Z,98087.41
2023-11-18T09:40:35.281Z,98092.81
2023-11-18T09:43:23.170Z,98097.38
2023-11-18T09:46:15.486Z,98101.75
2023-11-18T09:49:27.059Z,98112.41
2023-11-18T09:52:19.212Z,98107.44
2023-11-18T09:55:16.313Z,98107.91
2023-11-18T09:58:10.122Z,98106.72
2023-11-18T10:01:00.167Z,98111.00
2023-11-18T10:03:47.227Z,98115.28
2023-11-18T10:06:35.811Z,98108.00
2023-11-18T10:09:29.752Z,98110.94
2023-11-18T10:12:17.951Z,98107.97
2023-11-18T10:15:04.971Z,98111.53
2023-11-18T10:18:07.845Z,98117.72
2023-11-18T10:20:54.998Z,98119.47
2023-11-18T10:23:59.469Z,98118.94
2023-11-18T10:26:49.055Z,98123.19
2023-11-18T10:29:35.086Z,98115.94
2023-11-18T10:32:22.382Z,98116.75
2023-11-18T10:35:11.326Z,98117.22
2023-11-18T10:37:56.948Z,98101.44
2023-11-18T10:40:42.833Z,98103.09
2023-11-18T10:43:31.239Z,98098.28
2023-11-18T10:46:18.116Z,98084.56
2023-11-18T10:49:04.075Z,98082.25
2023-11-18T10:51:53.012Z,98077.25
2023-11-18T10:54:38.695Z,98089.69
2023-11-18T10:57:25.810Z,98093.59
2023-11-18T11:00:15.909Z,98101.94
2023-11-18T11:03:05.559Z,98108.47
2023-11-18T11:05:51.785Z,98108.13
2023-11-18T11:11:26.900Z,98099.03
2023-11-18T11:14:15.597Z,98091.59
2023-11-18T11:17:12.326Z,98102.59
2023-11-18T11:20:33.157Z,98091.72
2023-11-18T11:23:21.244Z,98085.72
2023-11-18T11:26:23.396Z,98079.06
2023-11-18T11:29:24.927Z,98072.06
2023-11-18T11:32:25.417Z,98075.16
2023-11-18T11:35:22.429Z,98071.78
2023-11-18T11:38:11.252Z,98070.16
2023-11-18T11:41:01.554Z,98068.41
2023-11-18T11:43:51.842Z,98067.22
2023-11-18T11:46:38.511Z,98064.03
2023-11-18T11:49:28.914Z,98068.56
2023-11-18T11:52:31.178Z,98062.94
2023-11-18T11:55:37.678Z,98069.00
2023-11-18T11:58:32.367Z,98066.00
2023-11-18T12:01:36.586Z,98069.06
2023-11-18T12:04:29.451Z,98063.78
2023-11-18T14:14:42.977Z,97954.38
2023-11-18T14:17:29.532Z,97944.69
2023-11-18T14:20:15.189Z,97953.91
2023-11-18T14:23:00.984Z,97959.28
2023-11-18T14:25:49.102Z,97957.53
2023-11-18T14:28:36.164Z,97954.97
2023-11-18T14:31:23.616Z,97963.56
2023-11-18T14:34:11.234Z,97955.50
2023-11-18T14:36:57.508Z,97955.78
2023-11-18T14:39:43.887Z,97951.66
2023-11-18T14:42:29.390Z,97953.75
2023-11-18T14:45:16.287Z,97948.97
2023-11-18T14:48:02.254Z,97950.09
2023-11-18T14:50:47.934Z,97948.56
2023-11-18T14:53:35.192Z,97950.28
2023-11-18T14:56:20.835Z,97950.22
2023-11-18T14:59:07.151Z,97953.72
2023-11-18T15:01:58.284Z,97957.63
2023-11-18T15:04:44.421Z,97957.91
2023-11-18T15:07:29.798Z,97962.63
2023-11-18T15:10:22.631Z,97956.44
2023-11-18T15:13:19.216Z,97960.16
2023-11-18T15:16:05.282Z,97946.09
2023-11-18T15:18:53.716Z,97943.88
2023-11-18T15:21:39.545Z,97942.97
2023-11-18T15:24:25.349Z,97932.53
2023-11-18T15:27:12.641Z,97917.81
2023-11-18T15:29:58.755Z,97909.38
2023-11-18T15:32:46.736Z,97904.09
2023-11-18T15:35:32.248Z,97896.31
2023-11-18T15:38:23.817Z,97902.50
2023-11-18T15:41:12.537Z,97904.69
2023-11-18T15:43:58.187Z,97901.66
2023-11-18T15:46:49.055Z,97903.03
2023-11-18T15:49:34.684Z,97899.97
2023-11-18T15:52:20.113Z,97901.19
2023-11-18T15:55:11.069Z,97901.41
2023-11-18T15:57:56.742Z,97886.06
2023-11-18T16:00:42.471Z,97888.88
2023-11-18T16:03:28.838Z,97898.38
2023-11-18T16:06:14.952Z,97888.91
2023-11-18T16:09:00.778Z,97880.41
2023-11-18T16:11:46.356Z,97876.81
2023-11-18T16:14:31.921Z,97867.16
2023-11-18T16:17:17.978Z,97860.13
2023-11-18T16:20:08.150Z,97874.84
2023-11-18T16:22:56.152Z,97865.06
2023-11-18T16:25:42.043Z,97867.00
2023-11-18T16:28:28.511Z,97863.38
2023-11-18T16:31:14.695Z,97857.81
2023-11-18T16:34:00.215Z,97858.78
2023-11-18T16:36:46.153Z,97853.22
2023-11-18T16:39:32.577Z,97850.25
2023-11-18T16:42:20.139Z,97855.28
2023-11-18T16:45:05.780Z,97862.63
2023-11-18T16:47:52.300Z,97864.22
2023-11-18T16:50:38.195Z,97875.66
2023-11-18T16:53:23.649Z,97874.94
2023-11-18T16:56:09.939Z,97871.81
2023-11-18T16:58:55.618Z,97881.63
2023-11-18T17:01:41.099Z,97879.63
2023-11-18T17:04:26.629Z,97879.94
2023-11-18T17:07:15.042Z,97876.53
2023-11-18T17:10:00.566Z,97876.00
2023-11-18T17:12:47.278Z,97868.97
2023-11-18T17:15:32.879Z,97871.44
2023-11-18T17:18:18.662Z,97869.31
2023-11-18T17:21:04.871Z,97867.66
2023-11-18T17:23:51.706Z,97875.50
2023-11-18T17:26:40.168Z,97868.47
2023-11-18T17:29:27.088Z,97864.72
2023-11-18T17:32:12.383Z,97851.53
2023-11-18T17:34:58.292Z,97863.59
2023-11-18T17:37:45.265Z,97870.63
2023-11-18T17:40:30.828Z,97874.72
2023-11-18T17:43:16.170Z,97864.09
2023-11-18T17:46:01.726Z,97863.81
2023-11-18T17:48:47.049Z,97859.88
2023-11-18T17:51:34.193Z,97863.00
2023-11-18T17:54:20.013Z,97863.69
2023-11-18T17:57:05.959Z,97858.47
2023-11-18T17:59:54.637Z,97845.22
2023-11-18T18:02:42.020Z,97847.66
2023-11-18T18:05:27.601Z,97839.53
2023-11-18T18:08:15.590Z,97841.00
2023-11-18T18:11:01.244Z,97840.03
2023-11-18T18:13:46.854Z,97828.63
2023-11-18T18:16:32.522Z,97831.88
2023-11-18T18:19:19.304Z,97822.75
2023-11-18T18:22:05.141Z,97818.16
2023-11-18T18:24:51.253Z,97811.66
2023-11-18T18:27:37.128Z,97801.69
2023-11-18T18:30:22.951Z,97796.31
2023-11-18T18:33:10.020Z,97775.09
2023-11-18T18:35:55.405Z,97771.00
2023-11-18T18:38:41.285Z,97774.09
2023-11-18T18:41:26.935Z,97770.50
2023-11-18T18:44:12.356Z,97773.63
2023-11-18T18:46:59.035Z,97771.50
2023-11-18T18:49:44.334Z,97767.91
2023-11-18T18:52:29.841Z,97772.81
2023-11-18T18:55:15.912Z,97778.69
2023-11-18T18:58:01.277Z,97773.13
2023-11-18T19:00:46.669Z,97765.94
2023-11-18T19:03:33.251Z,97769.41
2023-11-18T20:07:34.596Z,97652.50
2023-11-18T20:10:20.668Z,97651.53
2023-11-18T20:13:06.925Z,97658.78
2023-11-18T20:15:55.089Z,97647.47
2023-11-18T20:18:40.711Z,97650.59
2023-11-18T20:21:26.313Z,97658.81
2023-11-18T20:24:11.983Z,97647.69
2023-11-18T20:26:57.402Z,97656.50
2023-11-18T20:29:43.171Z,97640.81
2023-11-18T20:32:29.683Z,97641.63
2023-11-18T20:35:15.345Z,97629.34
2023-11-18T20:38:03.085Z,97630.19
2023-11-18T20:40:49.266Z,97631.97
2023-11-18T20:43:34.935Z,97630.00
2023-11-18T20:46:20.531Z,97632.63
2023-11-18T20:49:06.625Z,97627.56
2023-11-18T20:51:54.254Z,97622.94
2023-11-18T20:54:40.159Z,97625.56
2023-11-18T20:57:25.564Z,97626.41
2023-11-18T21:00:12.658Z,97617.91
2023-11-18T21:02:58.574Z,97617.56
2023-11-18T21:05:44.619Z,97619.16
2023-11-18T21:08:30.616Z,97616.41
2023-11-18T21:11:15.918Z,97613.59
2023-11-18T21:14:01.687Z,97604.75
2023-11-18T21:16:47.485Z,97595.91
2023-11-18T21:19:33.260Z,97588.88
2023-11-18T21:22:19.234Z,97584.28
2023-11-18T21:25:06.327Z,97570.34
2023-11-18T21:27:52.821Z,97570.19
2023-11-18T21:30:38.331Z,97573.28
2023-11-18T21:33:24.169Z,97559.38
2023-11-18T21:36:10.130Z,97545.28
2023-11-18T21:38:56.161Z,97545.09
2023-11-18T21:41:41.970Z,97545.09
2023-11-18T21:44:27.832Z,97532.84
2023-11-18T21:47:13.694Z,97535.59
2023-11-18T21:50:02.897Z,97532.00
2023-11-18T21:52:48.646Z,97532.00
2023-11-18T21:55:34.518Z,97519.91
2023-11-18T21:58:20.111Z,97514.66
2023-11-18T22:01:06.994Z,97513.06
2023-11-18T22:03:53.845Z,97513.06
2023-11-18T22:06:39.326Z,97521.25
2023-11-18T22:09:25.246Z,97519.44
2023-11-18T22:12:10.775Z,97524.66
2023-11-18T22:14:56.167Z,97515.81
2023-11-18T22:17:44.415Z,97501.75
2023-11-18T22:20:31.299Z,97498.66
2023-11-18T22:23:17.496Z,97489.16
2023-11-18T22:26:03.098Z,97488.19
2023-11-18T22:28:48.764Z,97490.16
2023-11-18T22:31:34.553Z,97490.53
2023-11-18T22:34:20.341Z,97496.75
2023-11-18T22:37:07.214Z,97496.75
2023-11-18T22:39:55.472Z,97497.56
2023-11-18T22:42:44.153Z,97503.63
2023-11-18T22:45:29.749Z,97491.69
2023-11-18T22:48:15.331Z,97486.63
2023-11-18T22:51:00.741Z,97475.50
2023-11-18T22:53:46.384Z,97467.66
2023-11-18T22:56:32.304Z,97470.28
2023-11-18T22:59:20.977Z,97474.53
2023-11-18T23:02:06.972Z,97457.84
2023-11-18T23:04:52.442Z,97455.22
2023-11-18T23:07:37.983Z,97451.59
2023-11-18T23:10:27.195Z,97435.88
2023-11-18T23:13:14.585Z,97415.75
2023-11-18T23:16:02.032Z,97434.25
2023-11-18T23:18:47.873Z,97441.47
2023-11-18T23:21:34.565Z,97437.88
2023-11-18T23:24:21.606Z,97429.19
2023-11-18T23:27:08.349Z,97432.63
2023-11-18T23:29:53.731Z,97432.25
2023-11-18T23:32:41.128Z,97422.63
2023-11-18T23:35:26.690Z,97413.94
2023-11-18T23:38:12.548Z,97396.59
2023-11-18T23:40:58.050Z,97393.97
2023-11-18T23:43:43.693Z,97387.94
2023-11-18T23:46:30.218Z,97377.47
2023-11-18T23:49:16.242Z,97369.59
2023-11-18T23:52:02.172Z,97370.59
2023-11-18T23:54:49.204Z,97367.00
2023-11-18T23:57:35.975Z,97376.28
